Ana Sayfa
METAR-TAF:

METAR-TAF

Havaalanları :

Kasane, Botsvana

Enlem: 17-49S, Boylam: 025-09E, yükseklik: 968 m

Güncel hava durumu gözlemi

Rapor saat 07:00 UTC de 10 dakika önce yapıldı.
Rüzgar doğu/güneydoğudan 11 kt
Sıcaklık 20°C
Nem 46%
Basınç 1024 hPa
Görüş mesafesi 10 km veya daha fazla
1500 m altında bulut yok ve kümülonimbus yok

METAR: FBKE 230700Z 11011KT CAVOK 20/08 Q1024

Saat: 09:10 (07:10 UTC)

Tahmin

Rapor saat 03:00 UTC de 4 saat ve 10 dakika önce yapıldı.
Ayın 23'si saat 06 UTC'den ayın 23'si saat 15 UTC'ye kadar geçerli Tahmin
Rüzgar doğu/kuzeydoğudan 16 kt
Görüş mesafesi 10 km veya daha fazla
1500 m altında bulut yok ve kümülonimbus yok

TAF: FBKE 230300Z 2306/2315 07016KT CAVOK

4.000'den fazla havaalanı için hava durumu gözlemleri ve tahminleri (METAR ve TAF raporları).

Kullanılabilir istasyonlar harita üzerinde sarı ve kırmızı noktalarla gösterilir.

İstasyonun adını görmek için fareyi noktanın üzerinde gezdirin.

Sonrasında hava gözlem ve tahminlerini görmek için tıklayın.

Haritayı değiştirmek için: yaklaştırmak için siyah artı işaretli yeşil düğmeye ve uzaklaştırmak için de eksi işaretli düğmeye hızla tıklayın; bitişik haritalar için yeşil okları kullanın.


METAR-TAF: